Miami, West Virginia
Current Conditions -  °F | °C
As of 3:54 PM on Monday 24 Nov 2014 (Local Time) from KCRW Reporting Station
Broken Clouds Broken Clouds  
Wind Chill: 70°   Ceiling: 9500
Heat Index: 70°   Visibility: 10mi
Dew Point: 40°   Wind: 20mph
Humidity: 33%   Direction: 240°WSW
Pressure: 29.62"   Gusts: 35mph
Location:  38.15°N, 81.45°W
Report Text: KCRW 242054Z 24017G30KT 10SM SCT075 BKN095 21/04 A2962 RMK AO2 PK WND 25030/2054 SLP023 T02110044 53032 $
Loading
Personal Weather Stations






























Interactive Weather Map New forecast layout! Learn more

10-Day Weather Forecast

Advertisements
Track Severe Weather on mobile